createdAt,value
2024-04-09T00:00:39.403Z,20.5
2024-04-09T00:10:39.367Z,20.4
2024-04-09T00:30:39.295Z,20.8
2024-04-09T00:40:39.261Z,20.3
2024-04-09T00:50:39.210Z,20
2024-04-09T01:00:39.206Z,20
2024-04-09T01:20:39.133Z,18.8
2024-04-09T01:30:39.091Z,18.3
2024-04-09T01:40:39.055Z,17.9
2024-04-09T01:50:39.039Z,17.6
2024-04-09T02:00:38.988Z,17.3
2024-04-09T02:10:38.950Z,17.1
2024-04-09T02:20:38.937Z,16.9
2024-04-09T02:30:38.878Z,16.7
2024-04-09T02:40:38.847Z,16.5
2024-04-09T02:50:38.814Z,16.4
2024-04-09T03:00:38.791Z,16.3
2024-04-09T03:10:38.762Z,16.2
2024-04-09T03:20:38.715Z,16
2024-04-09T03:30:38.695Z,15.8
2024-04-09T03:40:38.649Z,15.8
2024-04-09T03:50:38.622Z,15.3
2024-04-09T04:00:38.586Z,15
2024-04-09T04:10:38.545Z,14.8
2024-04-09T04:20:38.523Z,14.6
2024-04-09T04:30:38.473Z,14.2
2024-04-09T04:40:38.460Z,14.2
2024-04-09T04:50:38.430Z,14
2024-04-09T05:00:38.378Z,13.9
2024-04-09T05:10:38.366Z,13.9
2024-04-09T05:20:38.323Z,13.8
2024-04-09T05:30:38.320Z,13.9
2024-04-09T05:40:38.270Z,13.7
2024-04-09T05:50:38.219Z,13.8
2024-04-09T06:00:38.205Z,13.9
2024-04-09T06:10:38.150Z,13.9
2024-04-09T06:20:38.134Z,13.9
2024-04-09T06:30:38.111Z,14
2024-04-09T06:40:38.066Z,13.8
2024-04-09T06:50:38.038Z,13.5
2024-04-09T07:00:38.004Z,13.1
2024-04-09T07:10:37.979Z,12.6
2024-04-09T07:20:37.954Z,12
2024-04-09T07:30:37.905Z,11.5
2024-04-09T07:40:37.873Z,11.2
2024-04-09T07:50:37.857Z,11
2024-04-09T08:00:37.813Z,11.1
2024-04-09T08:10:37.791Z,11
2024-04-09T08:20:37.765Z,11.2
2024-04-09T08:30:37.720Z,11.2
2024-04-09T08:40:37.687Z,11.3
2024-04-09T08:50:37.713Z,11.3
2024-04-09T09:00:37.638Z,11.5
2024-04-09T09:10:37.602Z,11.6
2024-04-09T09:20:37.571Z,11.6
2024-04-09T09:30:37.533Z,11.4
2024-04-09T09:40:37.567Z,11.1
2024-04-09T09:50:37.495Z,11
2024-04-09T10:00:37.531Z,11.6
2024-04-09T10:10:37.509Z,12.3
2024-04-09T10:20:37.517Z,12.8
2024-04-09T10:30:37.360Z,12.8
2024-04-09T10:40:37.410Z,12.8
2024-04-09T10:50:37.301Z,12.7
2024-04-09T11:00:37.261Z,12.6
2024-04-09T11:10:37.235Z,12.8
2024-04-09T11:20:37.204Z,13
2024-04-09T11:30:37.147Z,13.1
2024-04-09T11:40:37.132Z,13.3
2024-04-09T11:50:37.100Z,14
2024-04-09T12:00:37.072Z,14.1
2024-04-09T12:10:37.038Z,13.9
2024-04-09T12:20:36.999Z,14.2
2024-04-09T12:30:36.971Z,14
2024-04-09T12:40:36.931Z,14.4
2024-04-09T12:50:36.902Z,14.4
2024-04-09T13:00:36.882Z,14.4
2024-04-09T13:10:36.916Z,14.6
2024-04-09T13:20:37.077Z,14.8
2024-04-09T13:30:37.166Z,14.7
2024-04-09T13:40:36.745Z,15
2024-04-09T13:50:36.695Z,14.8
2024-04-09T14:00:36.664Z,14.9
2024-04-09T14:10:36.645Z,14.8
2024-04-09T14:20:36.593Z,14.3
2024-04-09T14:30:36.576Z,14.3
2024-04-09T14:40:36.549Z,14.3
2024-04-09T14:50:36.512Z,14.2
2024-04-09T15:00:36.485Z,14
2024-04-09T15:10:36.462Z,14
2024-04-09T15:20:36.408Z,13.9
2024-04-09T15:30:36.380Z,13.8
2024-04-09T15:40:36.344Z,13.7
2024-04-09T15:50:36.311Z,13.5
2024-04-09T16:00:36.299Z,13.4
2024-04-09T16:10:36.239Z,13.2
2024-04-09T16:20:36.221Z,13.1
2024-04-09T16:30:36.185Z,13.2
2024-04-09T16:40:36.208Z,13.1
2024-04-09T16:50:36.127Z,13.3
2024-04-09T17:00:36.107Z,13.1
2024-04-09T17:10:36.052Z,12.9
2024-04-09T17:20:36.024Z,12.8
2024-04-09T17:30:36.000Z,12.7
2024-04-09T17:40:35.980Z,12.6
2024-04-09T17:50:35.930Z,12.6
2024-04-09T18:00:35.885Z,12.6
2024-04-09T18:10:35.861Z,12.4
2024-04-09T18:20:35.839Z,12
2024-04-09T18:30:35.815Z,11.9
2024-04-09T18:40:35.779Z,12
2024-04-09T18:50:35.739Z,11.8
2024-04-09T19:00:35.715Z,11.5
2024-04-09T19:10:35.681Z,11.2
2024-04-09T19:20:35.659Z,11.2
2024-04-09T19:30:35.627Z,11.2
2024-04-09T19:40:35.574Z,10.8
2024-04-09T19:50:35.562Z,10.2
2024-04-09T20:00:35.526Z,10.1
2024-04-09T20:10:35.798Z,10
2024-04-09T20:20:35.773Z,9.9
2024-04-09T20:30:35.695Z,9.8
2024-04-09T20:40:35.420Z,9.8
2024-04-09T20:50:35.595Z,9.9
2024-04-09T21:00:35.576Z,9.9
2024-04-09T21:10:35.764Z,9.9
2024-04-09T21:20:35.529Z,9.9
2024-04-09T21:30:35.605Z,9.9
2024-04-09T21:40:35.628Z,9.9
2024-04-09T21:50:35.553Z,9.9
2024-04-09T22:00:35.228Z,9.9
2024-04-09T22:10:35.228Z,9.9
2024-04-09T22:20:35.401Z,9.9
2024-04-09T22:30:35.209Z,9.9
2024-04-09T22:40:35.459Z,9.9
2024-04-09T22:50:35.317Z,9.9
2024-04-09T23:00:35.285Z,9.9
2024-04-09T23:10:35.274Z,9.8
2024-04-09T23:20:35.210Z,9.8
2024-04-09T23:30:35.029Z,9.7
2024-04-09T23:40:34.877Z,9.6
2024-04-09T23:50:35.138Z,9.6
